ROMMA est une association bénévole à but non lucratif. Votre soutien est indispensable : ADHERER à ROMMA ou FAIRE un DON

Eygliers - (05, Hautes-Alpes)

Guillestrois (965 m)   Longitude: 6° 38' 04" E   Latitude: 44° 40' 37" N Station partenaire n°53
 

Détail journalier du     <<     >>

Température Precipitation Humidité Vent Dir Rafale Dir. rafale Ensol.
Heure (°C) (mm) (%) (km/h) (km/h) (min)
01:00 5.00951E6E0
02:00 5.70962NE8ESE0
03:00 5.50962ESE10NNE0
04:00 5.90953NNE13NNE0
05:00 5.8095000
06:00 6.2094000
07:00 7.10901NE11NE0
08:00 6.70923NNE11NNE0
09:00 8.70843SE10ESE25
10:00 10.50782N10NNO15
11:00 11.30721NO6O10
12:00 11.40694NNO15ESE0
13:00 11.60754N11ESE0
14:00 12.80682O11NNE0
15:00 12.70655NO13NO0
16:00 12.40624NNO18NO0
17:00 11.00723N10NNO30
18:00 11.10706NNE13SE0
19:00 9.20776NE13E0
20:00 8.70804E15ESE0
21:00 9.10783NNE11NE0
22:00 9.20795E13E0
23:00 9.10785NE11NNE0
minuit 8.80793ENE8ENE0

Graphique du 09-11-2018

 

Serveur OMMA